Time;durP1;ratioP1;P1;durP2;ratioP2;P2;SDS_P1;SDS_P2;PMS_P1;PMS_P2;Temp;Humidity;BMP_temperature;BMP_pressure;BME280_temperature;BME280_humidity;BME280_pressure;Samples;Min_cycle;Max_cycle;Signal;HPM_P1;HPM_P2
2022/04/09 00:00:15;;;;;;;;;;;14.50;83.90;;;;;;5093162;28;20267;-79
2022/04/09 00:02:41;;;;;;;;;;;14.40;84.00;;;;;;5089484;28;20001;-79
2022/04/09 00:05:07;;;;;;;;;;;14.50;84.70;;;;;;5089541;28;19920;-79
2022/04/09 00:07:33;;;;;;;;;;;14.50;85.10;;;;;;5089529;28;19915;-80
2022/04/09 00:09:59;;;;;;;;;;;14.50;86.30;;;;;;5089501;28;19909;-79
2022/04/09 00:12:25;;;;;;;;;;;14.50;84.80;;;;;;5092279;28;19912;-79
2022/04/09 00:14:50;;;;;;;;;;;14.40;84.80;;;;;;5090171;28;19961;-79
2022/04/09 00:17:16;;;;;;;;;;;14.50;85.20;;;;;;5089197;28;19934;-79
2022/04/09 00:19:42;;;;;;;;;;;14.50;84.80;;;;;;5089363;28;19908;-79
2022/04/09 00:22:07;;;;;;;;;;;14.60;84.90;;;;;;5089220;28;20273;-79
2022/04/09 00:24:33;;;;;;;;;;;14.60;85.00;;;;;;5090576;28;19904;-79
2022/04/09 00:26:58;;;;;;;;;;;14.60;85.10;;;;;;5092988;28;20553;-78
2022/04/09 00:29:24;;;;;;;;;;;14.60;85.40;;;;;;5089001;28;19955;-79
2022/04/09 00:31:50;;;;;;;;;;;14.60;85.60;;;;;;5088805;28;19912;-79
2022/04/09 00:34:15;;;;;;;;;;;14.50;85.30;;;;;;5089290;28;19908;-79
2022/04/09 00:36:41;;;;;;;;;;;14.60;86.00;;;;;;5090360;28;19914;-79
2022/04/09 00:39:06;;;;;;;;;;;14.60;85.90;;;;;;5091017;28;19910;-79
2022/04/09 00:41:32;;;;;;;;;;;14.50;85.80;;;;;;5070846;28;19920;-78
2022/04/09 00:43:58;;;;;;;;;;;14.50;86.40;;;;;;5088867;28;20269;-79
2022/04/09 00:46:23;;;;;;;;;;;14.50;87.10;;;;;;5088716;28;19912;-79
2022/04/09 00:48:49;;;;;;;;;;;14.50;87.00;;;;;;5089067;28;19999;-79
2022/04/09 00:51:15;;;;;;;;;;;14.40;87.30;;;;;;5092271;28;20003;-79
2022/04/09 00:53:42;;;;;;;;;;;14.40;87.20;;;;;;5088561;28;19916;-80
2022/04/09 00:56:16;;;;;;;;;;;14.40;87.50;;;;;;5088753;28;19908;-80
2022/04/09 00:58:53;;;;;;;;;;;14.30;87.50;;;;;;5088728;28;19949;-79
2022/04/09 01:01:19;;;;;;;;;;;14.20;87.70;;;;;;5088210;28;20451;-80
2022/04/09 01:03:45;;;;;;;;;;;14.10;88.20;;;;;;5089341;28;20037;-80
2022/04/09 01:06:11;;;;;;;;;;;14.10;88.50;;;;;;5092176;28;19908;-80
2022/04/09 01:08:37;;;;;;;;;;;14.10;88.60;;;;;;5088559;28;19908;-79
2022/04/09 01:11:02;;;;;;;;;;;14.10;88.20;;;;;;5088551;28;19931;-79
2022/04/09 01:13:28;;;;;;;;;;;14.10;88.00;;;;;;5088701;28;19915;-79
2022/04/09 01:15:54;;;;;;;;;;;14.20;88.40;;;;;;5088461;28;19915;-79
2022/04/09 01:18:20;;;;;;;;;;;14.10;89.10;;;;;;5091606;28;20277;-79
2022/04/09 01:20:46;;;;;;;;;;;14.00;88.40;;;;;;5089060;28;19912;-79
2022/04/09 01:23:12;;;;;;;;;;;14.00;88.50;;;;;;5088343;28;20348;-79
2022/04/09 01:25:38;;;;;;;;;;;14.00;87.80;;;;;;5088453;28;19922;-79
2022/04/09 01:28:04;;;;;;;;;;;14.00;88.20;;;;;;5088306;28;20347;-79
2022/04/09 01:30:30;;;;;;;;;;;14.00;88.40;;;;;;5091049;28;19942;-79
2022/04/09 01:32:55;;;;;;;;;;;14.00;88.60;;;;;;5089548;28;20244;-80
2022/04/09 01:35:21;;;;;;;;;;;14.00;87.90;;;;;;5088479;28;19944;-79
2022/04/09 01:37:47;;;;;;;;;;;14.10;87.80;;;;;;5088723;28;20376;-79
2022/04/09 01:40:13;;;;;;;;;;;14.00;88.30;;;;;;5088460;28;19915;-79
2022/04/09 01:42:38;;;;;;;;;;;14.00;87.10;;;;;;5089541;28;20266;-79
2022/04/09 01:45:05;;;;;;;;;;;13.90;87.90;;;;;;5090702;28;20288;-80
2022/04/09 01:47:31;;;;;;;;;;;13.80;88.30;;;;;;5088239;28;20053;-79
2022/04/09 01:49:56;;;;;;;;;;;13.70;88.70;;;;;;5088253;28;20408;-79
2022/04/09 01:52:22;;;;;;;;;;;13.70;88.30;;;;;;5089861;28;19930;-79
2022/04/09 01:54:48;;;;;;;;;;;13.60;88.90;;;;;;5092509;28;19953;-79
2022/04/09 01:57:15;;;;;;;;;;;13.50;89.40;;;;;;5091043;28;20001;-79
2022/04/09 01:59:43;;;;;;;;;;;13.40;89.60;;;;;;5091610;28;19908;-79
2022/04/09 02:02:09;;;;;;;;;;;13.40;89.70;;;;;;5091764;28;19961;-79
2022/04/09 02:04:34;;;;;;;;;;;13.50;90.20;;;;;;5092042;28;19952;-80
2022/04/09 02:07:00;;;;;;;;;;;13.40;90.20;;;;;;5091931;28;19908;-80
2022/04/09 02:09:26;;;;;;;;;;;13.30;90.20;;;;;;5094330;28;19904;-80
2022/04/09 02:11:52;;;;;;;;;;;13.20;90.50;;;;;;5093363;28;19915;-80
2022/04/09 02:14:17;;;;;;;;;;;13.30;90.60;;;;;;5091242;28;19934;-80
2022/04/09 02:16:43;;;;;;;;;;;13.30;90.50;;;;;;5091831;28;19908;-81
2022/04/09 02:19:10;;;;;;;;;;;13.30;90.60;;;;;;5091756;28;20360;-80
2022/04/09 02:21:36;;;;;;;;;;;13.30;90.50;;;;;;5093366;28;19912;-79
2022/04/09 02:24:02;;;;;;;;;;;13.30;90.60;;;;;;5093366;28;19904;-80
2022/04/09 02:26:28;;;;;;;;;;;13.30;90.40;;;;;;5091859;28;19935;-79
2022/04/09 02:28:53;;;;;;;;;;;13.30;90.70;;;;;;5090868;28;20315;-79
2022/04/09 02:31:20;;;;;;;;;;;13.30;90.90;;;;;;5091831;28;19908;-79
2022/04/09 02:33:46;;;;;;;;;;;13.20;91.10;;;;;;5075654;28;19915;-79
2022/04/09 02:36:12;;;;;;;;;;;13.30;91.30;;;;;;5094487;28;20295;-79
2022/04/09 02:38:38;;;;;;;;;;;13.30;91.10;;;;;;5090977;28;19912;-79
2022/04/09 02:41:04;;;;;;;;;;;13.30;90.80;;;;;;5090970;28;19916;-80
2022/04/09 02:43:30;;;;;;;;;;;13.20;90.90;;;;;;5091137;28;19912;-80
2022/04/09 02:45:56;;;;;;;;;;;13.20;90.80;;;;;;5091362;28;19908;-80
2022/04/09 02:48:21;;;;;;;;;;;13.20;91.10;;;;;;5093945;28;20279;-79
2022/04/09 02:50:48;;;;;;;;;;;13.20;91.40;;;;;;5091752;28;19904;-79
2022/04/09 02:53:14;;;;;;;;;;;13.20;91.30;;;;;;5090636;28;19956;-80
2022/04/09 02:55:40;;;;;;;;;;;13.20;91.30;;;;;;5090881;28;19940;-80
2022/04/09 02:58:07;;;;;;;;;;;13.10;91.30;;;;;;5090473;28;19927;-80
2022/04/09 03:00:32;;;;;;;;;;;13.00;91.50;;;;;;5093376;28;19904;-81
2022/04/09 03:02:58;;;;;;;;;;;12.90;91.30;;;;;;5091326;28;19912;-81
2022/04/09 03:05:24;;;;;;;;;;;12.70;91.70;;;;;;5090650;28;19912;-79
2022/04/09 03:07:49;;;;;;;;;;;12.60;92.10;;;;;;5090990;28;20276;-79
2022/04/09 03:10:15;;;;;;;;;;;12.60;92.40;;;;;;5090495;28;19961;-80
2022/04/09 03:12:44;;;;;;;;;;;12.70;92.10;;;;;;5091489;28;20377;-80
2022/04/09 03:15:09;;;;;;;;;;;12.70;92.00;;;;;;5093345;28;20395;-80
2022/04/09 03:17:35;;;;;;;;;;;12.70;91.70;;;;;;5090594;28;19912;-80
2022/04/09 03:20:00;;;;;;;;;;;12.70;91.60;;;;;;5090489;28;19915;-79
2022/04/09 03:22:28;;;;;;;;;;;12.60;91.30;;;;;;5090333;28;20425;-79
2022/04/09 03:24:57;;;;;;;;;;;12.50;90.90;;;;;;5090060;28;20413;-79
2022/04/09 03:27:23;;;;;;;;;;;12.50;90.50;;;;;;5093133;28;19911;-80
2022/04/09 03:29:48;;;;;;;;;;;12.50;90.40;;;;;;5091006;28;19904;-79
2022/04/09 03:32:14;;;;;;;;;;;12.50;90.10;;;;;;5090068;28;20475;-79
2022/04/09 03:34:40;;;;;;;;;;;12.40;90.00;;;;;;5090494;28;19977;-80
2022/04/09 03:37:05;;;;;;;;;;;12.40;90.20;;;;;;5090072;28;20002;-80
2022/04/09 03:39:31;;;;;;;;;;;12.30;90.40;;;;;;5092175;28;20019;-80
2022/04/09 03:41:56;;;;;;;;;;;12.40;90.20;;;;;;5091019;28;20004;-80
2022/04/09 03:44:22;;;;;;;;;;;12.30;89.90;;;;;;5090492;28;20364;-79
2022/04/09 03:46:48;;;;;;;;;;;12.30;89.80;;;;;;5089841;28;20443;-80
2022/04/09 03:49:13;;;;;;;;;;;12.30;90.20;;;;;;5090014;28;19915;-80
2022/04/09 03:51:39;;;;;;;;;;;12.40;90.00;;;;;;5091649;28;19916;-80
2022/04/09 03:54:05;;;;;;;;;;;12.30;90.10;;;;;;5091416;28;19920;-79
2022/04/09 03:56:30;;;;;;;;;;;12.40;90.10;;;;;;5089946;28;19915;-80
2022/04/09 03:58:56;;;;;;;;;;;12.40;90.00;;;;;;5089519;28;19930;-80
2022/04/09 04:01:24;;;;;;;;;;;12.50;90.00;;;;;;5089837;28;19916;-80
2022/04/09 04:03:50;;;;;;;;;;;12.50;89.90;;;;;;5089905;28;19904;-80
2022/04/09 04:06:16;;;;;;;;;;;12.40;89.30;;;;;;5092986;28;19908;-80
2022/04/09 04:08:41;;;;;;;;;;;12.50;89.60;;;;;;5089212;28;19911;-80
2022/04/09 04:11:07;;;;;;;;;;;12.50;89.90;;;;;;5089587;28;19908;-80
2022/04/09 04:13:35;;;;;;;;;;;12.40;90.10;;;;;;5089468;28;19904;-80
2022/04/09 04:16:03;;;;;;;;;;;12.40;89.60;;;;;;5088759;28;19949;-80
2022/04/09 04:18:28;;;;;;;;;;;12.30;90.00;;;;;;5091697;28;19911;-80
2022/04/09 04:20:54;;;;;;;;;;;12.30;90.00;;;;;;5090343;28;20364;-80
2022/04/09 04:23:20;;;;;;;;;;;12.20;89.60;;;;;;5088697;28;19914;-80
2022/04/09 04:25:46;;;;;;;;;;;12.20;90.00;;;;;;5089457;28;19915;-80
2022/04/09 04:28:11;;;;;;;;;;;12.20;90.10;;;;;;5088962;28;19908;-80
2022/04/09 04:30:37;;;;;;;;;;;12.10;90.10;;;;;;5090949;28;19951;-80
2022/04/09 04:33:02;;;;;;;;;;;12.10;90.10;;;;;;5091089;28;20322;-80
2022/04/09 04:35:28;;;;;;;;;;;12.00;90.20;;;;;;5089057;28;19908;-80
2022/04/09 04:37:54;;;;;;;;;;;11.90;90.30;;;;;;5089050;28;19988;-80
2022/04/09 04:40:19;;;;;;;;;;;11.80;90.60;;;;;;5089228;28;19965;-80
2022/04/09 04:42:45;;;;;;;;;;;11.90;90.50;;;;;;5089508;28;19977;-79
2022/04/09 04:45:12;;;;;;;;;;;11.90;90.70;;;;;;5091913;28;20310;-79
2022/04/09 04:47:41;;;;;;;;;;;11.80;90.80;;;;;;5089389;28;19965;-79
2022/04/09 04:50:07;;;;;;;;;;;11.70;90.80;;;;;;5088752;28;19908;-80
2022/04/09 04:52:33;;;;;;;;;;;11.70;90.90;;;;;;5088273;28;19923;-80
2022/04/09 04:54:58;;;;;;;;;;;11.60;91.00;;;;;;5089018;28;19915;-80
2022/04/09 04:57:24;;;;;;;;;;;11.50;91.20;;;;;;5091709;28;19950;-81
2022/04/09 04:59:49;;;;;;;;;;;11.50;91.00;;;;;;5090892;28;19951;-80
2022/04/09 05:02:15;;;;;;;;;;;11.40;91.30;;;;;;5088556;28;19919;-81
2022/04/09 05:04:40;;;;;;;;;;;11.40;91.50;;;;;;5088857;28;19907;-80
2022/04/09 05:07:06;;;;;;;;;;;11.30;91.50;;;;;;5088403;28;19911;-81
2022/04/09 05:09:34;;;;;;;;;;;11.40;91.80;;;;;;5090952;28;20400;-80
2022/04/09 05:11:59;;;;;;;;;;;11.40;91.50;;;;;;5090102;28;19946;-81
2022/04/09 05:14:25;;;;;;;;;;;11.30;91.90;;;;;;5088669;28;19943;-80
2022/04/09 05:16:50;;;;;;;;;;;11.30;91.90;;;;;;5088628;28;19912;-80
2022/04/09 05:19:16;;;;;;;;;;;11.30;92.10;;;;;;5088455;28;19949;-80
2022/04/09 05:21:44;;;;;;;;;;;11.20;91.90;;;;;;5089648;28;19924;-79
2022/04/09 05:24:10;;;;;;;;;;;11.30;91.90;;;;;;5091059;28;19915;-80
2022/04/09 05:26:35;;;;;;;;;;;11.40;91.80;;;;;;5091000;28;19904;-80
2022/04/09 05:29:01;;;;;;;;;;;11.40;91.70;;;;;;5092463;28;20013;-80
2022/04/09 05:31:29;;;;;;;;;;;11.40;92.30;;;;;;5092397;28;19904;-80
2022/04/09 05:33:55;;;;;;;;;;;11.40;92.00;;;;;;5093024;28;20042;-80
2022/04/09 05:36:21;;;;;;;;;;;11.40;91.80;;;;;;5095545;28;19955;-80
2022/04/09 05:38:47;;;;;;;;;;;11.30;91.40;;;;;;5092260;28;20324;-81
2022/04/09 05:41:13;;;;;;;;;;;11.40;91.20;;;;;;5092683;28;19908;-80
2022/04/09 05:43:39;;;;;;;;;;;11.50;90.80;;;;;;5092251;28;19950;-80
2022/04/09 05:46:05;;;;;;;;;;;11.50;90.40;;;;;;5092278;28;19957;-80
2022/04/09 05:48:30;;;;;;;;;;;11.60;90.30;;;;;;5094814;28;20364;-77
2022/04/09 05:50:56;;;;;;;;;;;11.70;90.20;;;;;;5092806;28;20011;-75
2022/04/09 05:53:22;;;;;;;;;;;11.60;89.20;;;;;;5092260;28;19923;-78
2022/04/09 05:55:47;;;;;;;;;;;11.70;89.30;;;;;;5092157;28;19943;-78
2022/04/09 05:58:13;;;;;;;;;;;11.70;89.70;;;;;;5091889;28;19915;-79
2022/04/09 06:00:38;;;;;;;;;;;11.70;89.60;;;;;;5093600;28;20360;-80
2022/04/09 06:03:04;;;;;;;;;;;11.70;89.40;;;;;;5093794;28;19916;-80
2022/04/09 06:05:30;;;;;;;;;;;11.60;89.40;;;;;;5091919;28;20002;-79
2022/04/09 06:07:55;;;;;;;;;;;11.60;90.40;;;;;;5091454;28;19912;-80
2022/04/09 06:10:21;;;;;;;;;;;11.50;90.30;;;;;;5091867;28;20015;-75
2022/04/09 06:12:46;;;;;;;;;;;11.50;90.40;;;;;;5092184;28;19908;-76
2022/04/09 06:15:12;;;;;;;;;;;11.50;90.50;;;;;;5094703;28;19904;-79
2022/04/09 06:17:39;;;;;;;;;;;11.50;90.20;;;;;;5091574;28;19998;-81
2022/04/09 06:20:06;;;;;;;;;;;11.60;90.20;;;;;;5090815;28;19908;-80
2022/04/09 06:22:32;;;;;;;;;;;11.60;89.50;;;;;;5091447;28;19920;-81
2022/04/09 06:24:58;;;;;;;;;;;11.60;90.00;;;;;;5091664;28;20470;-80
2022/04/09 06:27:24;;;;;;;;;;;11.70;88.90;;;;;;5094255;28;19904;-81
2022/04/09 06:29:49;;;;;;;;;;;11.70;88.20;;;;;;5092530;28;20041;-81
2022/04/09 06:32:15;;;;;;;;;;;11.80;88.10;;;;;;5090969;28;19916;-82
2022/04/09 06:34:40;;;;;;;;;;;11.80;88.10;;;;;;5091029;28;19908;-81
2022/04/09 06:37:06;;;;;;;;;;;11.90;89.30;;;;;;5090618;28;19912;-79
2022/04/09 06:39:32;;;;;;;;;;;12.00;86.90;;;;;;5093323;28;19912;-79
2022/04/09 06:41:58;;;;;;;;;;;12.10;85.80;;;;;;5092537;28;19916;-80
2022/04/09 06:44:25;;;;;;;;;;;12.20;86.10;;;;;;5091108;28;20250;-80
2022/04/09 06:46:51;;;;;;;;;;;12.30;85.30;;;;;;5090666;28;20396;-79
2022/04/09 06:49:16;;;;;;;;;;;12.30;84.40;;;;;;5090754;28;19951;-80
2022/04/09 06:51:42;;;;;;;;;;;12.30;85.30;;;;;;5091996;28;20011;-79
2022/04/09 06:54:08;;;;;;;;;;;12.40;85.30;;;;;;5092706;28;19920;-79
2022/04/09 06:56:34;;;;;;;;;;;12.40;84.40;;;;;;5090582;28;20341;-79
2022/04/09 06:59:00;;;;;;;;;;;12.60;84.20;;;;;;5056155;28;19915;-78
2022/04/09 07:01:26;;;;;;;;;;;12.60;84.00;;;;;;5090643;28;19922;-79
2022/04/09 07:03:52;;;;;;;;;;;12.50;82.90;;;;;;5090634;28;19961;-79
2022/04/09 07:06:18;;;;;;;;;;;12.50;82.50;;;;;;5094673;28;19904;-80
2022/04/09 07:08:43;;;;;;;;;;;12.60;82.80;;;;;;5090538;28;20283;-79
2022/04/09 07:11:09;;;;;;;;;;;12.70;83.30;;;;;;5089990;28;20007;-78
2022/04/09 07:13:35;;;;;;;;;;;12.70;82.40;;;;;;5090053;28;20318;-78
2022/04/09 07:16:00;;;;;;;;;;;12.80;83.50;;;;;;5090588;28;19908;-79
2022/04/09 07:18:26;;;;;;;;;;;12.80;80.80;;;;;;5092479;28;20320;-78
2022/04/09 07:20:51;;;;;;;;;;;12.90;79.00;;;;;;5092638;28;19908;-79
2022/04/09 07:23:17;;;;;;;;;;;12.80;78.60;;;;;;5090005;28;19962;-77
2022/04/09 07:25:43;;;;;;;;;;;12.90;78.50;;;;;;5089575;28;20291;-78
2022/04/09 07:28:09;;;;;;;;;;;12.90;77.90;;;;;;5090197;28;20023;-72
2022/04/09 07:30:35;;;;;;;;;;;13.00;78.70;;;;;;5074363;28;19911;-73
2022/04/09 07:33:00;;;;;;;;;;;13.20;78.00;;;;;;5091045;28;19904;-73
2022/04/09 07:35:26;;;;;;;;;;;13.20;73.30;;;;;;5089726;28;20014;-73
2022/04/09 07:37:56;;;;;;;;;;;13.30;72.70;;;;;;5089577;28;19908;-71
2022/04/09 07:40:24;;;;;;;;;;;13.30;71.10;;;;;;5090452;28;20356;-71
2022/04/09 07:42:50;;;;;;;;;;;13.40;70.10;;;;;;5073845;28;19962;-71
2022/04/09 07:45:16;;;;;;;;;;;13.30;69.40;;;;;;5089300;28;19904;-71
2022/04/09 07:47:42;;;;;;;;;;;13.30;68.70;;;;;;5089302;28;20439;-72
2022/04/09 07:50:10;;;;;;;;;;;13.40;69.40;;;;;;5088995;28;20253;-71
2022/04/09 07:52:37;;;;;;;;;;;13.40;69.10;;;;;;5089399;28;19912;-71
2022/04/09 07:55:03;;;;;;;;;;;13.50;68.00;;;;;;5089880;28;19931;-73
2022/04/09 07:57:29;;;;;;;;;;;13.60;68.10;;;;;;5091668;28;19904;-74
2022/04/09 07:59:56;;;;;;;;;;;13.60;67.60;;;;;;5090569;28;19904;-73
2022/04/09 08:02:22;;;;;;;;;;;13.70;68.80;;;;;;5085147;28;19965;-73
2022/04/09 08:04:47;;;;;;;;;;;13.80;67.60;;;;;;5085715;28;19912;-73
2022/04/09 08:07:13;;;;;;;;;;;13.80;66.70;;;;;;5088790;28;19937;-73
2022/04/09 08:09:39;;;;;;;;;;;13.70;66.90;;;;;;5088883;28;19987;-73
2022/04/09 08:12:04;;;;;;;;;;;13.80;67.30;;;;;;5092686;28;19957;-73
2022/04/09 08:14:32;;;;;;;;;;;13.80;66.10;;;;;;5090152;28;20339;-73
2022/04/09 08:16:58;;;;;;;;;;;13.80;65.50;;;;;;5087922;28;20259;-73
2022/04/09 08:19:23;;;;;;;;;;;13.90;66.60;;;;;;5084853;28;19908;-75
2022/04/09 08:21:49;;;;;;;;;;;13.90;65.20;;;;;;5102444;28;19985;-75
2022/04/09 08:24:14;;;;;;;;;;;13.90;65.40;;;;;;5093662;28;19908;-75
2022/04/09 08:26:40;;;;;;;;;;;13.90;66.00;;;;;;5089861;28;19912;-75
2022/04/09 08:29:05;;;;;;;;;;;13.90;64.50;;;;;;5090784;28;19916;-75
2022/04/09 08:31:31;;;;;;;;;;;14.00;65.30;;;;;;5089935;28;19958;-75
2022/04/09 08:33:57;;;;;;;;;;;14.10;65.70;;;;;;5086988;28;19966;-75
2022/04/09 08:36:22;;;;;;;;;;;14.10;65.00;;;;;;5092279;28;20082;-75
2022/04/09 08:38:48;;;;;;;;;;;14.10;64.70;;;;;;5090770;28;19915;-75
2022/04/09 08:41:14;;;;;;;;;;;14.10;64.00;;;;;;5090464;28;20014;-75
2022/04/09 08:43:40;;;;;;;;;;;14.10;64.10;;;;;;5090382;28;20329;-75
2022/04/09 08:46:06;;;;;;;;;;;14.10;63.90;;;;;;5087854;28;19920;-75
2022/04/09 08:48:32;;;;;;;;;;;14.20;63.10;;;;;;5090365;28;19962;-75
2022/04/09 08:50:59;;;;;;;;;;;14.30;64.90;;;;;;5090921;28;19912;-75
2022/04/09 08:53:24;;;;;;;;;;;14.40;64.70;;;;;;5090324;28;19982;-75
2022/04/09 08:55:51;;;;;;;;;;;14.50;65.00;;;;;;5089981;28;19924;-75
2022/04/09 08:58:16;;;;;;;;;;;14.50;64.30;;;;;;5086397;28;19954;-75
2022/04/09 09:00:45;;;;;;;;;;;14.70;63.80;;;;;;5089879;28;19946;-74
2022/04/09 09:03:14;;;;;;;;;;;14.70;63.70;;;;;;5091526;28;19969;-75
2022/04/09 09:05:41;;;;;;;;;;;14.70;62.60;;;;;;5092340;28;20415;-75
2022/04/09 09:08:07;;;;;;;;;;;14.80;62.70;;;;;;5085378;28;20382;-75
2022/04/09 09:10:34;;;;;;;;;;;14.90;62.30;;;;;;5083459;28;19908;-77
2022/04/09 09:13:05;;;;;;;;;;;15.00;62.90;;;;;;5087026;28;19913;-76
2022/04/09 09:15:43;;;;;;;;;;;15.00;62.60;;;;;;5090473;28;19908;-75
2022/04/09 09:18:17;;;;;;;;;;;15.10;61.50;;;;;;5092204;28;20336;-76
2022/04/09 09:20:47;;;;;;;;;;;15.10;61.90;;;;;;5090211;28;19911;-76
2022/04/09 09:23:18;;;;;;;;;;;15.30;62.50;;;;;;5071916;28;19943;-75
2022/04/09 09:25:48;;;;;;;;;;;15.50;62.50;;;;;;5088067;28;19912;-75
2022/04/09 09:28:21;;;;;;;;;;;15.50;61.40;;;;;;5088791;28;19946;-76
2022/04/09 09:30:48;;;;;;;;;;;15.50;60.70;;;;;;5086022;28;19912;-75
2022/04/09 09:33:14;;;;;;;;;;;15.60;60.70;;;;;;5093109;28;20685;-76
2022/04/09 09:36:00;;;;;;;;;;;15.70;61.10;;;;;;5089810;28;19968;-76
2022/04/09 09:38:28;;;;;;;;;;;15.80;61.10;;;;;;5090053;28;20479;-76
2022/04/09 09:40:54;;;;;;;;;;;16.00;59.60;;;;;;5089857;28;19965;-75
2022/04/09 09:43:20;;;;;;;;;;;16.00;59.90;;;;;;5088525;28;20162;-76
2022/04/09 09:45:47;;;;;;;;;;;16.10;60.80;;;;;;5087107;28;19920;-76
2022/04/09 09:48:19;;;;;;;;;;;16.10;59.60;;;;;;5108728;28;20010;-76
2022/04/09 09:50:45;;;;;;;;;;;16.20;59.30;;;;;;5089087;28;19954;-76
2022/04/09 09:53:10;;;;;;;;;;;16.30;59.70;;;;;;5088988;28;19924;-74
2022/04/09 09:55:43;;;;;;;;;;;16.40;60.40;;;;;;5088721;28;20006;-73
2022/04/09 09:58:13;;;;;;;;;;;16.40;58.90;;;;;;5087615;28;19908;-73
2022/04/09 10:00:39;;;;;;;;;;;16.50;59.40;;;;;;5087780;28;19910;-73
2022/04/09 10:03:06;;;;;;;;;;;16.50;58.60;;;;;;5091144;28;20014;-73
2022/04/09 10:05:32;;;;;;;;;;;16.60;57.70;;;;;;5089037;28;19912;-74
2022/04/09 10:07:58;;;;;;;;;;;16.40;58.30;;;;;;5089257;28;19908;-73
2022/04/09 10:10:26;;;;;;;;;;;16.40;58.80;;;;;;5089436;28;20443;-73
2022/04/09 10:12:54;;;;;;;;;;;16.40;57.60;;;;;;5085739;28;19908;-74
2022/04/09 10:15:20;;;;;;;;;;;16.20;58.00;;;;;;5096818;28;20303;-74
2022/04/09 10:17:46;;;;;;;;;;;16.50;58.60;;;;;;5093435;28;20003;-71
2022/04/09 10:20:11;;;;;;;;;;;16.40;57.00;;;;;;5092517;28;19912;-73
2022/04/09 10:22:43;;;;;;;;;;;16.30;56.80;;;;;;5092695;28;20432;-72
2022/04/09 10:25:09;;;;;;;;;;;16.30;58.00;;;;;;5077302;28;19908;-71
2022/04/09 10:27:43;;;;;;;;;;;16.40;59.00;;;;;;5092638;28;19919;-73
2022/04/09 10:30:11;;;;;;;;;;;16.60;57.00;;;;;;5093389;28;19908;-73
2022/04/09 10:32:43;;;;;;;;;;;16.70;56.20;;;;;;5091144;28;19904;-73
2022/04/09 10:35:41;;;;;;;;;;;16.70;56.10;;;;;;5090971;28;19908;-71
2022/04/09 10:38:07;;;;;;;;;;;16.90;57.40;;;;;;5087786;28;19908;-73
2022/04/09 10:40:36;;;;;;;;;;;17.00;56.60;;;;;;5090682;28;20288;-71
2022/04/09 10:43:03;;;;;;;;;;;16.90;56.40;;;;;;5091430;28;20296;-71
2022/04/09 10:45:29;;;;;;;;;;;16.70;56.80;;;;;;5092708;28;20002;-70
2022/04/09 10:48:08;;;;;;;;;;;16.40;56.10;;;;;;5092560;28;20396;-71
2022/04/09 10:50:56;;;;;;;;;;;16.40;55.40;;;;;;5090372;28;19982;-72
2022/04/09 10:53:23;;;;;;;;;;;16.60;55.60;;;;;;5086100;28;19962;-73
2022/04/09 10:56:08;;;;;;;;;;;16.70;56.30;;;;;;5090702;28;19908;-72
2022/04/09 10:58:54;;;;;;;;;;;17.00;55.80;;;;;;5090819;28;19939;-71
2022/04/09 11:01:38;;;;;;;;;;;17.20;55.50;;;;;;5092116;28;20002;-72
2022/04/09 11:04:22;;;;;;;;;;;17.30;54.80;;;;;;5076623;28;20432;-71
2022/04/09 11:06:59;;;;;;;;;;;17.20;54.20;;;;;;5091308;28;19916;-72
2022/04/09 11:09:25;;;;;;;;;;;17.40;55.80;;;;;;5089988;28;19951;-72
2022/04/09 11:12:01;;;;;;;;;;;17.50;54.80;;;;;;5091631;28;19904;-72
2022/04/09 11:14:26;;;;;;;;;;;17.40;55.70;;;;;;5090178;28;19908;-72
2022/04/09 11:16:52;;;;;;;;;;;17.50;54.80;;;;;;5090423;28;20003;-72
2022/04/09 11:19:21;;;;;;;;;;;17.50;53.70;;;;;;5090312;28;20406;-72
2022/04/09 11:21:50;;;;;;;;;;;17.40;53.50;;;;;;5091302;28;19920;-71
2022/04/09 11:24:16;;;;;;;;;;;17.50;53.10;;;;;;5092472;28;20423;-72
2022/04/09 11:26:53;;;;;;;;;;;17.50;52.70;;;;;;5071581;28;19914;-72
2022/04/09 11:29:19;;;;;;;;;;;17.80;54.30;;;;;;5091608;28;19961;-71
2022/04/09 11:31:46;;;;;;;;;;;18.00;53.30;;;;;;5089883;28;20283;-71
2022/04/09 11:34:12;;;;;;;;;;;18.20;53.10;;;;;;5090187;28;19966;-72
2022/04/09 11:36:38;;;;;;;;;;;18.30;53.30;;;;;;5091975;28;20008;-71
2022/04/09 11:39:03;;;;;;;;;;;18.30;52.70;;;;;;5073487;28;19994;-76
2022/04/09 11:41:29;;;;;;;;;;;18.40;53.80;;;;;;5089962;28;19916;-74
2022/04/09 11:43:55;;;;;;;;;;;18.40;52.60;;;;;;5089896;28;19908;-76
2022/04/09 11:46:21;;;;;;;;;;;18.50;52.40;;;;;;5089686;28;19915;-74
2022/04/09 11:48:59;;;;;;;;;;;18.40;52.20;;;;;;5090258;28;19909;-73
2022/04/09 11:51:25;;;;;;;;;;;18.30;53.70;;;;;;5087367;28;19915;-73
2022/04/09 11:53:50;;;;;;;;;;;18.20;51.20;;;;;;5091643;28;19916;-72
2022/04/09 11:56:16;;;;;;;;;;;18.30;51.30;;;;;;5089786;28;19908;-73
2022/04/09 11:58:42;;;;;;;;;;;18.20;51.80;;;;;;5089500;28;19907;-73
2022/04/09 12:01:09;;;;;;;;;;;18.00;50.40;;;;;;5091529;28;20416;-72
2022/04/09 12:03:35;;;;;;;;;;;17.80;50.70;;;;;;5091299;28;19908;-73
2022/04/09 12:06:01;;;;;;;;;;;17.80;51.20;;;;;;5090905;28;20283;-72
2022/04/09 12:08:28;;;;;;;;;;;17.90;51.30;;;;;;5090500;28;19908;-73
2022/04/09 12:10:55;;;;;;;;;;;18.10;53.60;;;;;;5089422;28;19908;-72
2022/04/09 12:13:24;;;;;;;;;;;18.10;52.00;;;;;;5089200;28;19908;-73
2022/04/09 12:15:50;;;;;;;;;;;18.10;50.70;;;;;;5074018;28;19961;-73
2022/04/09 12:18:26;;;;;;;;;;;17.80;50.90;;;;;;5092689;28;20384;-72
2022/04/09 12:20:51;;;;;;;;;;;17.70;50.60;;;;;;5090189;28;20381;-72
2022/04/09 12:23:27;;;;;;;;;;;17.70;49.70;;;;;;5088650;28;19981;-72
2022/04/09 12:25:52;;;;;;;;;;;17.50;49.10;;;;;;5089193;28;19908;-72
2022/04/09 12:28:20;;;;;;;;;;;17.70;51.70;;;;;;5070859;28;19908;-72
2022/04/09 12:30:47;;;;;;;;;;;17.80;49.30;;;;;;5089686;28;19977;-72
2022/04/09 12:33:13;;;;;;;;;;;18.00;50.00;;;;;;5091482;28;19926;-72
2022/04/09 12:35:39;;;;;;;;;;;18.00;50.10;;;;;;5086423;28;20364;-72
2022/04/09 12:38:05;;;;;;;;;;;17.80;48.40;;;;;;5089528;28;19912;-73
2022/04/09 12:40:32;;;;;;;;;;;17.70;49.50;;;;;;5090885;28;19908;-73
2022/04/09 12:43:01;;;;;;;;;;;17.80;49.20;;;;;;5087311;28;20383;-73
2022/04/09 12:45:28;;;;;;;;;;;17.90;48.90;;;;;;5090294;28;19903;-72
2022/04/09 12:47:57;;;;;;;;;;;18.10;50.00;;;;;;5089876;28;19908;-73
2022/04/09 12:50:25;;;;;;;;;;;18.40;49.80;;;;;;5086481;28;19912;-73
2022/04/09 12:52:51;;;;;;;;;;;18.40;49.70;;;;;;5088288;28;20296;-74
2022/04/09 12:55:18;;;;;;;;;;;18.60;51.80;;;;;;5087791;28;20384;-72
2022/04/09 12:57:44;;;;;;;;;;;18.60;48.60;;;;;;5074705;28;19909;-72
2022/04/09 13:00:09;;;;;;;;;;;18.50;48.20;;;;;;5091930;28;19915;-73
2022/04/09 13:02:36;;;;;;;;;;;18.50;47.50;;;;;;5089465;28;19916;-73
2022/04/09 13:05:02;;;;;;;;;;;18.80;47.60;;;;;;5089250;28;20015;-73
2022/04/09 13:07:28;;;;;;;;;;;18.90;45.00;;;;;;5089091;28;20336;-73
2022/04/09 13:09:53;;;;;;;;;;;19.00;46.30;;;;;;5085153;28;19911;-73
2022/04/09 13:12:19;;;;;;;;;;;19.10;45.50;;;;;;5092823;28;19904;-73
2022/04/09 13:14:45;;;;;;;;;;;19.00;45.60;;;;;;5089812;28;19998;-73
2022/04/09 13:17:10;;;;;;;;;;;19.10;44.60;;;;;;5071420;28;19919;-73
2022/04/09 13:19:36;;;;;;;;;;;19.00;45.70;;;;;;5088826;28;20356;-73
2022/04/09 13:22:02;;;;;;;;;;;19.10;46.10;;;;;;5086502;28;19920;-73
2022/04/09 13:24:27;;;;;;;;;;;18.90;47.50;;;;;;5090945;28;20070;-73
2022/04/09 13:26:53;;;;;;;;;;;19.00;47.30;;;;;;5090886;28;20413;-73
2022/04/09 13:29:18;;;;;;;;;;;19.00;46.40;;;;;;5089556;28;19919;-72
2022/04/09 13:31:46;;;;;;;;;;;19.00;46.70;;;;;;5089426;28;19952;-72
2022/04/09 13:34:14;;;;;;;;;;;19.00;44.90;;;;;;5087800;28;19912;-72
2022/04/09 13:36:40;;;;;;;;;;;19.00;44.80;;;;;;5088289;28;20299;-73
2022/04/09 13:39:06;;;;;;;;;;;19.00;44.40;;;;;;5091901;28;19908;-72
2022/04/09 13:41:32;;;;;;;;;;;19.10;44.10;;;;;;5089532;28;20325;-72
2022/04/09 13:43:57;;;;;;;;;;;19.20;44.90;;;;;;5089237;28;19908;-72
2022/04/09 13:46:23;;;;;;;;;;;19.20;44.50;;;;;;5089681;28;20010;-72
2022/04/09 13:48:49;;;;;;;;;;;19.20;43.80;;;;;;5089606;28;19916;-72
2022/04/09 13:51:14;;;;;;;;;;;19.40;44.10;;;;;;5096512;28;20399;-72
2022/04/09 13:53:40;;;;;;;;;;;19.50;44.00;;;;;;5093087;28;19920;-72
2022/04/09 13:56:06;;;;;;;;;;;19.60;44.80;;;;;;5093097;28;19978;-72
2022/04/09 13:58:31;;;;;;;;;;;19.80;44.70;;;;;;5090558;28;19918;-72
2022/04/09 14:00:57;;;;;;;;;;;20.10;43.90;;;;;;5089470;28;19924;-72
2022/04/09 14:03:23;;;;;;;;;;;20.10;44.00;;;;;;5093135;28;19916;-72
2022/04/09 14:05:48;;;;;;;;;;;20.30;43.90;;;;;;5080551;28;19951;-73
2022/04/09 14:08:15;;;;;;;;;;;20.30;43.50;;;;;;5089153;28;19999;-73
2022/04/09 14:10:41;;;;;;;;;;;20.30;43.60;;;;;;5091866;28;19908;-72
2022/04/09 14:13:07;;;;;;;;;;;20.50;41.60;;;;;;5087453;28;20317;-73